Time;durP1;ratioP1;P1;durP2;ratioP2;P2;SDS_P1;SDS_P2;PMS_P1;PMS_P2;Temp;Humidity;BMP_temperature;BMP_pressure;BME280_temperature;BME280_humidity;BME280_pressure;Samples;Min_cycle;Max_cycle;Signal;HPM_P1;HPM_P2
2023/06/07 00:02:06;;;;;;;16.00;15.20;;;14.80;99.90;;;;;;4970973;28;20452;-77
2023/06/07 00:04:32;;;;;;;16.03;15.23;;;14.90;99.90;;;;;;4970536;28;20466;-78
2023/06/07 00:07:00;;;;;;;16.63;15.73;;;14.80;99.90;;;;;;4970654;28;20515;-79
2023/06/07 00:09:29;;;;;;;18.80;17.70;;;14.80;99.90;;;;;;4970355;28;20506;-79
2023/06/07 00:11:55;;;;;;;16.27;15.47;;;14.80;99.90;;;;;;4970630;28;20532;-79
2023/06/07 00:14:22;;;;;;;18.73;17.73;;;14.80;99.90;;;;;;4970983;28;20487;-79
2023/06/07 00:16:50;;;;;;;20.07;18.63;;;14.70;99.90;;;;;;4970608;28;20455;-79
2023/06/07 00:19:20;;;;;;;18.20;17.00;;;14.60;99.90;;;;;;4970469;28;20460;-79
2023/06/07 00:21:48;;;;;;;17.90;16.87;;;14.50;99.90;;;;;;4970417;28;20455;-80
2023/06/07 00:24:15;;;;;;;19.23;18.23;;;14.50;99.90;;;;;;4970633;28;20669;-79
2023/06/07 00:26:43;;;;;;;19.53;18.20;;;14.50;99.90;;;;;;4970699;28;20467;-79
2023/06/07 00:29:10;;;;;;;40.57;36.63;;;14.40;99.90;;;;;;4970537;28;20467;-80
2023/06/07 00:31:37;;;;;;;16.20;15.37;;;14.30;99.90;;;;;;4970385;28;20495;-79
2023/06/07 00:34:04;;;;;;;17.00;16.00;;;14.30;99.90;;;;;;4970483;28;20479;-79
2023/06/07 00:36:31;;;;;;;23.20;21.43;;;14.30;99.90;;;;;;4970309;28;20456;-80
2023/06/07 00:38:57;;;;;;;17.70;16.80;;;14.40;99.90;;;;;;4969496;28;20455;-79
2023/06/07 00:41:24;;;;;;;17.47;16.57;;;14.40;99.90;;;;;;4969938;28;20469;-80
2023/06/07 00:43:52;;;;;;;18.80;17.80;;;14.50;99.90;;;;;;4970539;28;20451;-79
2023/06/07 00:46:22;;;;;;;18.43;17.03;;;14.40;99.90;;;;;;4970385;28;20458;-79
2023/06/07 00:48:50;;;;;;;17.10;16.10;;;14.40;99.90;;;;;;4969910;28;20977;-79
2023/06/07 00:51:16;;;;;;;17.70;16.70;;;14.40;99.90;;;;;;4969609;28;20844;-79
2023/06/07 00:53:45;;;;;;;17.80;16.70;;;14.30;99.90;;;;;;4969917;28;20562;-80
2023/06/07 00:56:12;;;;;;;18.07;17.17;;;14.30;99.90;;;;;;4969948;28;20459;-80
2023/06/07 00:58:39;;;;;;;18.07;17.10;;;14.20;99.90;;;;;;4969999;28;20475;-79
2023/06/07 01:01:08;;;;;;;17.27;16.43;;;14.20;99.90;;;;;;4969970;28;20466;-79
2023/06/07 01:03:35;;;;;;;17.67;16.73;;;14.10;99.90;;;;;;4969839;28;20804;-79
2023/06/07 01:06:03;;;;;;;18.53;17.23;;;14.10;99.90;;;;;;4969752;28;20463;-81
2023/06/07 01:08:30;;;;;;;17.10;16.17;;;14.00;99.90;;;;;;4969759;28;20452;-81
2023/06/07 01:10:59;;;;;;;18.93;17.77;;;13.90;99.90;;;;;;4969887;28;20483;-80
2023/06/07 01:13:28;;;;;;;17.40;16.40;;;14.00;99.90;;;;;;4970253;28;20809;-81
2023/06/07 01:15:54;;;;;;;18.13;17.23;;;14.00;99.90;;;;;;4970067;28;20467;-81
2023/06/07 01:18:25;;;;;;;18.40;17.30;;;14.00;99.90;;;;;;4970206;28;20462;-81
2023/06/07 01:20:57;;;;;;;18.27;17.10;;;14.00;99.90;;;;;;4970066;28;20451;-81
2023/06/07 01:23:31;;;;;;;18.00;17.10;;;14.00;99.90;;;;;;4969894;28;20467;-80
2023/06/07 01:25:59;;;;;;;18.63;17.63;;;13.90;99.90;;;;;;4969547;28;20455;-80
2023/06/07 01:28:27;;;;;;;17.87;16.97;;;13.90;99.90;;;;;;4969786;28;20444;-81
2023/06/07 01:30:55;;;;;;;17.33;16.43;;;14.00;99.90;;;;;;4967819;28;20502;-79
2023/06/07 01:33:22;;;;;;;17.50;16.70;;;13.90;99.90;;;;;;4968095;28;20772;-79
2023/06/07 01:35:51;;;;;;;18.00;17.00;;;13.90;99.90;;;;;;4969020;28;20747;-79
2023/06/07 01:38:20;;;;;;;19.43;18.10;;;13.80;99.90;;;;;;4969474;28;20767;-79
2023/06/07 01:40:50;;;;;;;19.00;18.10;;;13.70;99.90;;;;;;4969302;28;20447;-79
2023/06/07 01:43:19;;;;;;;19.70;18.53;;;13.60;99.90;;;;;;4969324;28;20991;-78
2023/06/07 01:45:46;;;;;;;19.40;18.50;;;13.60;99.90;;;;;;4973703;28;20507;-80
2023/06/07 01:48:13;;;;;;;19.83;18.53;;;13.60;99.90;;;;;;4976898;28;20463;-81
2023/06/07 01:50:40;;;;;;;19.27;18.27;;;13.60;99.90;;;;;;4977892;28;20487;-81
2023/06/07 01:53:06;;;;;;;19.17;18.17;;;13.60;99.90;;;;;;4973076;28;20451;-75
2023/06/07 01:55:33;;;;;;;20.77;19.67;;;13.50;99.90;;;;;;4972702;28;20456;-77
2023/06/07 01:58:13;;;;;;;20.17;18.60;;;13.50;99.90;;;;;;4972688;28;20463;-76
2023/06/07 02:00:47;;;;;;;19.57;18.37;;;13.50;99.90;;;;;;4972796;28;20455;-76
2023/06/07 02:03:17;;;;;;;20.77;19.30;;;13.50;99.90;;;;;;4972733;28;20467;-75
2023/06/07 02:05:49;;;;;;;19.23;18.00;;;13.60;99.90;;;;;;4972818;28;20541;-75
2023/06/07 02:08:26;;;;;;;19.03;18.03;;;13.70;99.90;;;;;;4972635;28;20463;-75
2023/06/07 02:10:53;;;;;;;19.63;18.10;;;13.70;99.90;;;;;;4972631;28;20498;-75
2023/06/07 02:13:22;;;;;;;20.10;19.10;;;13.70;99.90;;;;;;4972513;28;20443;-75
2023/06/07 02:15:49;;;;;;;20.27;19.27;;;13.60;99.90;;;;;;4972481;28;20922;-77
2023/06/07 02:18:19;;;;;;;21.10;19.80;;;13.40;99.90;;;;;;4972190;28;20452;-77
2023/06/07 02:20:46;;;;;;;21.10;19.70;;;13.30;99.90;;;;;;4972283;28;20460;-76
2023/06/07 02:23:13;;;;;;;20.13;19.03;;;13.30;99.90;;;;;;4972318;28;20546;-76
2023/06/07 02:25:40;;;;;;;21.20;20.00;;;13.40;99.90;;;;;;4972572;28;20459;-76
2023/06/07 02:28:07;;;;;;;21.20;20.07;;;13.30;99.90;;;;;;4972418;28;20455;-78
2023/06/07 02:30:35;;;;;;;21.00;19.80;;;13.20;99.90;;;;;;4972356;28;20501;-77
2023/06/07 02:33:02;;;;;;;21.27;19.77;;;13.20;99.90;;;;;;4972331;28;20946;-77
2023/06/07 02:35:28;;;;;;;22.37;20.60;;;13.10;99.90;;;;;;4972157;28;20656;-78
2023/06/07 02:37:55;;;;;;;23.50;21.80;;;13.10;99.90;;;;;;4971883;28;20546;-77
2023/06/07 02:40:22;;;;;;;21.37;19.97;;;13.00;99.90;;;;;;4972174;28;20646;-76
2023/06/07 02:42:49;;;;;;;20.93;19.73;;;13.00;99.90;;;;;;4971880;28;20950;-76
2023/06/07 02:45:16;;;;;;;23.00;21.50;;;13.00;99.90;;;;;;4971462;28;20486;-76
2023/06/07 02:47:45;;;;;;;21.77;20.27;;;13.10;99.90;;;;;;4971720;28;20857;-77
2023/06/07 02:50:12;;;;;;;23.63;22.00;;;13.00;99.90;;;;;;4971263;28;20483;-77
2023/06/07 02:52:39;;;;;;;22.97;21.37;;;12.90;99.90;;;;;;4971875;28;20466;-77
2023/06/07 02:55:07;;;;;;;21.30;20.00;;;13.00;99.90;;;;;;4971941;28;20581;-77
2023/06/07 02:57:33;;;;;;;23.37;21.77;;;13.00;99.90;;;;;;4971793;28;20452;-77
2023/06/07 03:00:00;;;;;;;23.80;22.10;;;12.90;99.90;;;;;;4970693;28;20482;-77
2023/06/07 03:02:27;;;;;;;21.43;19.83;;;12.80;99.90;;;;;;4970314;28;20455;-76
2023/06/07 03:04:56;;;;;;;23.27;21.40;;;12.80;99.90;;;;;;4971347;28;20457;-77
2023/06/07 03:07:23;;;;;;;21.33;19.93;;;12.90;99.90;;;;;;4971801;28;20455;-75
2023/06/07 03:09:50;;;;;;;23.07;21.67;;;13.00;99.90;;;;;;4971799;28;20444;-78
2023/06/07 03:12:16;;;;;;;23.20;21.80;;;13.00;99.90;;;;;;4971379;28;20488;-76
2023/06/07 03:14:43;;;;;;;22.77;21.20;;;13.00;99.90;;;;;;4971352;28;20463;-74
2023/06/07 03:17:11;;;;;;;23.27;21.50;;;13.00;99.90;;;;;;4971132;28;20452;-74
2023/06/07 03:19:38;;;;;;;21.30;20.10;;;13.00;99.90;;;;;;4971362;28;20558;-74
2023/06/07 03:22:07;;;;;;;22.97;21.67;;;13.00;99.90;;;;;;4971586;28;20451;-74
2023/06/07 03:24:34;;;;;;;23.00;21.60;;;13.00;99.90;;;;;;4971469;28;20463;-77
2023/06/07 03:27:01;;;;;;;21.87;20.33;;;13.00;99.90;;;;;;4971238;28;20478;-78
2023/06/07 03:29:27;;;;;;;23.20;21.50;;;12.90;99.90;;;;;;4970921;28;20451;-76
2023/06/07 03:31:54;;;;;;;23.17;21.17;;;12.90;99.90;;;;;;4970869;28;20487;-76
2023/06/07 03:34:21;;;;;;;21.57;20.27;;;12.90;99.90;;;;;;4971089;28;20466;-75
2023/06/07 03:36:48;;;;;;;22.90;21.40;;;13.00;99.90;;;;;;4970807;28;20466;-75
2023/06/07 03:39:16;;;;;;;23.40;21.73;;;13.00;99.90;;;;;;4970493;28;20483;-74
2023/06/07 03:41:43;;;;;;;21.93;20.60;;;13.00;99.90;;;;;;4970790;28;20487;-74
2023/06/07 03:44:10;;;;;;;22.47;20.80;;;13.10;99.90;;;;;;4970985;28;20460;-74
2023/06/07 03:46:36;;;;;;;22.80;21.20;;;13.10;99.90;;;;;;4970964;28;20467;-75
2023/06/07 03:49:03;;;;;;;23.27;21.60;;;13.10;99.90;;;;;;4970348;28;20483;-75
2023/06/07 03:51:32;;;;;;;23.10;21.70;;;11.60;99.90;;;;;;4970410;28;20820;-76
2023/06/07 03:53:58;;;;;;;23.10;21.27;;;13.20;99.90;;;;;;4970458;28;20864;-76
2023/06/07 03:56:26;;;;;;;21.13;19.77;;;13.30;99.90;;;;;;4970360;28;20448;-76
2023/06/07 03:58:54;;;;;;;23.80;22.30;;;13.80;99.90;;;;;;4970322;28;20827;-76
2023/06/07 04:01:21;;;;;;;23.27;21.77;;;13.30;99.90;;;;;;4970702;28;20456;-76
2023/06/07 04:03:48;;;;;;;25.27;23.47;;;13.40;99.90;;;;;;4969900;28;20460;-76
2023/06/07 04:06:16;;;;;;;23.53;22.33;;;13.40;99.90;;;;;;4969572;28;21025;-75
2023/06/07 04:08:42;;;;;;;24.17;22.87;;;13.50;99.90;;;;;;4970291;28;20628;-76
2023/06/07 04:11:09;;;;;;;24.67;23.17;;;13.50;99.90;;;;;;4970096;28;20854;-76
2023/06/07 04:13:37;;;;;;;27.90;26.10;;;13.60;99.90;;;;;;4969414;28;20513;-76
2023/06/07 04:16:04;;;;;;;25.03;23.43;;;13.50;99.90;;;;;;4969889;28;20940;-76
2023/06/07 04:18:31;;;;;;;25.90;24.40;;;13.50;99.90;;;;;;4969931;28;20452;-76
2023/06/07 04:20:58;;;;;;;26.00;24.40;;;13.60;99.90;;;;;;4970028;28;20817;-76
2023/06/07 04:23:24;;;;;;;27.03;25.03;;;13.70;99.90;;;;;;4970007;28;20460;-77
2023/06/07 04:25:53;;;;;;;23.10;21.73;;;14.30;99.90;;;;;;4970256;28;20511;-78
2023/06/07 04:28:23;;;;;;;21.60;20.20;;;14.50;99.90;;;;;;4970052;28;20460;-79
2023/06/07 04:30:53;;;;;;;22.20;20.80;;;14.90;99.90;;;;;;4970302;28;20482;-77
2023/06/07 04:33:21;;;;;;;21.20;20.07;;;15.60;99.90;;;;;;4970139;28;20451;-77
2023/06/07 04:35:47;;;;;;;21.30;19.97;;;15.70;99.90;;;;;;4970001;28;20456;-76
2023/06/07 04:38:16;;;;;;;22.00;20.50;;;16.00;99.90;;;;;;4969667;28;20456;-75
2023/06/07 04:40:49;;;;;;;20.17;18.57;;;16.10;99.90;;;;;;4969795;28;20741;-76
2023/06/07 04:43:18;;;;;;;19.73;18.47;;;16.20;99.90;;;;;;4969589;28;20562;-76
2023/06/07 04:45:53;;;;;;;19.50;18.30;;;16.60;99.90;;;;;;4967579;28;20587;-75
2023/06/07 04:48:22;;;;;;;18.13;17.03;;;16.70;99.90;;;;;;4956829;28;20539;-81
2023/06/07 04:50:50;;;;;;;20.67;18.80;;;16.90;99.90;;;;;;4961133;28;20786;-79
2023/06/07 04:53:19;;;;;;;18.60;17.60;;;17.00;99.90;;;;;;4958305;28;20449;-76
2023/06/07 04:55:47;;;;;;;20.33;19.13;;;17.30;99.90;;;;;;4959174;28;20448;-75
2023/06/07 04:58:15;;;;;;;18.10;17.30;;;17.50;99.90;;;;;;4960440;28;20471;-77
2023/06/07 05:00:43;;;;;;;18.63;17.63;;;17.70;99.90;;;;;;4959051;28;20448;-76
2023/06/07 05:03:13;;;;;;;18.30;17.20;;;17.70;99.90;;;;;;4959321;28;20449;-77
2023/06/07 05:05:41;;;;;;;16.93;15.87;;;17.90;99.90;;;;;;4956587;28;21010;-76
2023/06/07 05:08:08;;;;;;;16.67;15.87;;;18.00;99.90;;;;;;4959643;28;20471;-74
2023/06/07 05:10:34;;;;;;;17.00;16.10;;;18.20;99.90;;;;;;4960628;28;20458;-75
2023/06/07 05:13:01;;;;;;;16.40;15.30;;;18.50;99.90;;;;;;4958942;28;20480;-78
2023/06/07 05:15:28;;;;;;;15.73;14.83;;;18.70;99.90;;;;;;4959126;28;20629;-79
2023/06/07 05:17:55;;;;;;;16.70;15.80;;;19.10;99.90;;;;;;4957971;28;20953;-79
2023/06/07 05:20:24;;;;;;;15.80;14.80;;;19.00;99.90;;;;;;4960122;28;20454;-75
2023/06/07 05:22:52;;;;;;;16.60;15.40;;;19.20;99.90;;;;;;4957891;28;20459;-77
2023/06/07 05:25:20;;;;;;;16.90;15.57;;;19.90;99.90;;;;;;4958481;28;20460;-77
2023/06/07 05:27:49;;;;;;;16.00;15.30;;;20.20;99.90;;;;;;4963023;28;20790;-77
2023/06/07 05:30:16;;;;;;;16.50;15.70;;;20.50;99.90;;;;;;4964085;28;20452;-79
2023/06/07 05:32:43;;;;;;;16.50;15.60;;;20.50;99.90;;;;;;4962892;28;20510;-78
2023/06/07 05:35:10;;;;;;;16.30;15.50;;;20.40;99.90;;;;;;4962466;28;20510;-78
2023/06/07 05:37:37;;;;;;;17.17;16.17;;;20.50;99.90;;;;;;4964333;28;20455;-75
2023/06/07 05:40:08;;;;;;;16.73;15.90;;;20.90;99.90;;;;;;4962850;28;20457;-76
2023/06/07 05:42:38;;;;;;;16.83;16.03;;;21.00;99.90;;;;;;4967642;28;20518;-75
2023/06/07 05:45:06;;;;;;;17.00;16.00;;;21.40;99.90;;;;;;4973616;28;20487;-75
2023/06/07 05:47:32;;;;;;;19.57;18.43;;;21.60;99.90;;;;;;4964509;28;20468;-73
2023/06/07 05:49:59;;;;;;;18.57;17.70;;;21.80;99.60;;;;;;4961343;28;20482;-72
2023/06/07 05:52:26;;;;;;;17.07;16.17;;;21.80;99.30;;;;;;4957818;28;20499;-72
2023/06/07 05:54:54;;;;;;;18.17;17.27;;;22.20;98.70;;;;;;4953655;29;20452;-72
2023/06/07 05:57:22;;;;;;;18.67;17.77;;;22.30;98.20;;;;;;4953338;29;20573;-72
2023/06/07 05:59:50;;;;;;;19.33;18.33;;;22.60;98.00;;;;;;4953340;29;20456;-71
2023/06/07 06:02:20;;;;;;;19.13;18.13;;;22.90;97.10;;;;;;4952901;29;21034;-72
2023/06/07 06:04:46;;;;;;;17.90;16.87;;;22.70;97.10;;;;;;4952876;29;20565;-72
2023/06/07 06:07:13;;;;;;;17.50;16.60;;;22.80;97.00;;;;;;4953214;29;20467;-72
2023/06/07 06:09:41;;;;;;;17.90;16.90;;;23.20;96.60;;;;;;4952990;29;20954;-72
2023/06/07 06:12:09;;;;;;;17.80;17.00;;;23.70;95.40;;;;;;4953244;29;20496;-72
2023/06/07 06:14:37;;;;;;;18.17;17.17;;;23.60;95.20;;;;;;4953052;29;20957;-71
2023/06/07 06:17:04;;;;;;;18.40;17.20;;;23.80;95.10;;;;;;4953270;29;20801;-72
2023/06/07 06:19:31;;;;;;;17.70;16.40;;;24.20;94.20;;;;;;4952816;29;20456;-72
2023/06/07 06:21:58;;;;;;;18.10;16.90;;;24.40;94.20;;;;;;4952708;29;20464;-73
2023/06/07 06:24:25;;;;;;;18.30;17.10;;;25.00;92.60;;;;;;4952703;29;20457;-73
2023/06/07 06:26:52;;;;;;;18.33;17.43;;;25.60;91.20;;;;;;4953072;29;20464;-73
2023/06/07 06:29:18;;;;;;;18.97;17.73;;;25.80;90.80;;;;;;4952894;29;20467;-71
2023/06/07 06:31:46;;;;;;;18.80;17.80;;;25.60;91.20;;;;;;4952572;29;21039;-72
2023/06/07 06:34:13;;;;;;;21.07;19.43;;;25.90;89.90;;;;;;4952728;29;20830;-72
2023/06/07 06:36:40;;;;;;;19.43;17.60;;;25.20;90.90;;;;;;4951701;28;20488;-74
2023/06/07 06:39:08;;;;;;;18.57;17.20;;;25.60;91.10;;;;;;4952843;29;20464;-74
2023/06/07 06:41:34;;;;;;;18.63;17.53;;;26.00;89.60;;;;;;4952688;29;20543;-73
2023/06/07 06:44:01;;;;;;;18.50;17.50;;;26.40;87.60;;;;;;4952489;29;20515;-73
2023/06/07 06:46:28;;;;;;;19.10;17.80;;;26.70;86.20;;;;;;4952821;29;20456;-73
2023/06/07 06:48:56;;;;;;;19.10;17.60;;;26.70;85.90;;;;;;4952481;28;20891;-73
2023/06/07 06:51:22;;;;;;;18.90;17.63;;;26.60;85.80;;;;;;4952798;29;20507;-73
2023/06/07 06:53:49;;;;;;;17.63;16.70;;;26.50;86.50;;;;;;4952839;29;20448;-74
2023/06/07 06:56:16;;;;;;;17.80;16.90;;;26.80;85.60;;;;;;4952812;29;20451;-73
2023/06/07 06:58:43;;;;;;;17.80;16.80;;;26.90;85.50;;;;;;4952625;29;20467;-73
2023/06/07 07:01:13;;;;;;;17.30;16.40;;;27.20;84.70;;;;;;4952481;29;20460;-73
2023/06/07 07:03:41;;;;;;;18.07;17.07;;;27.20;84.30;;;;;;4952666;29;20481;-71
2023/06/07 07:06:09;;;;;;;17.80;16.80;;;27.50;83.60;;;;;;4952678;29;20481;-72
2023/06/07 07:08:36;;;;;;;17.40;16.27;;;27.90;82.80;;;;;;4952653;29;20457;-71
2023/06/07 07:11:03;;;;;;;16.70;15.73;;;28.40;80.10;;;;;;4956837;28;20531;-72
2023/06/07 07:13:30;;;;;;;17.63;16.53;;;28.10;80.20;;;;;;4959996;28;20492;-73
2023/06/07 07:15:56;;;;;;;18.27;17.07;;;28.10;80.70;;;;;;4961558;28;20956;-73
2023/06/07 07:18:23;;;;;;;17.17;16.20;;;28.30;80.20;;;;;;4961709;28;20456;-73
2023/06/07 07:20:50;;;;;;;17.47;16.57;;;28.60;79.00;;;;;;4960110;28;20452;-74
2023/06/07 07:23:18;;;;;;;16.80;15.90;;;28.80;78.70;;;;;;4961441;28;20447;-74
2023/06/07 07:25:45;;;;;;;16.53;15.83;;;28.90;77.70;;;;;;4955988;28;20911;-74
2023/06/07 07:28:11;;;;;;;17.33;16.53;;;28.80;77.00;;;;;;4959671;28;20441;-74
2023/06/07 07:30:38;;;;;;;16.67;15.97;;;29.10;76.60;;;;;;4960828;28;20463;-74
2023/06/07 07:33:05;;;;;;;17.30;16.50;;;29.00;76.50;;;;;;4961397;28;20514;-74
2023/06/07 07:35:32;;;;;;;16.73;16.00;;;29.40;76.00;;;;;;4959758;28;20459;-74
2023/06/07 07:38:00;;;;;;;17.10;16.30;;;30.00;74.20;;;;;;4961151;28;20897;-75
2023/06/07 07:40:29;;;;;;;17.13;16.33;;;30.60;71.80;;;;;;4961580;28;20536;-74
2023/06/07 07:42:55;;;;;;;16.93;16.13;;;30.80;70.70;;;;;;4957120;28;20440;-73
2023/06/07 07:45:22;;;;;;;16.33;15.47;;;30.90;70.10;;;;;;4960530;28;20447;-74
2023/06/07 07:47:49;;;;;;;15.90;15.00;;;30.90;69.00;;;;;;4961324;28;20494;-73
2023/06/07 07:50:17;;;;;;;16.57;15.63;;;30.50;70.90;;;;;;4959583;28;20476;-73
2023/06/07 07:52:43;;;;;;;16.20;15.60;;;30.60;69.40;;;;;;4959728;28;20483;-73
2023/06/07 07:55:11;;;;;;;17.47;16.50;;;30.70;69.90;;;;;;4961298;28;20452;-72
2023/06/07 07:57:39;;;;;;;17.67;16.50;;;30.40;70.30;;;;;;4960429;28;20548;-73
2023/06/07 08:00:10;;;;;;;17.10;16.40;;;30.40;71.30;;;;;;4959607;28;20949;-72
2023/06/07 08:02:37;;;;;;;16.27;15.57;;;30.80;70.10;;;;;;4957733;28;20970;-73
2023/06/07 08:05:06;;;;;;;16.57;15.87;;;31.70;67.40;;;;;;4959869;28;20440;-73
2023/06/07 08:07:33;;;;;;;15.80;15.20;;;31.60;66.90;;;;;;4956515;28;20460;-75
2023/06/07 08:10:00;;;;;;;17.33;16.53;;;31.60;65.90;;;;;;4960244;28;20440;-75
2023/06/07 08:12:27;;;;;;;17.07;16.37;;;32.10;64.20;;;;;;4960615;28;20579;-74
2023/06/07 08:14:55;;;;;;;15.40;14.80;;;31.70;63.40;;;;;;4961035;28;20440;-74
2023/06/07 08:17:21;;;;;;;15.57;14.90;;;30.90;66.90;;;;;;4960088;28;20452;-74
2023/06/07 08:19:49;;;;;;;15.87;14.90;;;30.40;67.10;;;;;;4958665;28;20507;-74
2023/06/07 08:22:15;;;;;;;16.00;15.30;;;30.70;67.20;;;;;;4956583;28;20444;-74
2023/06/07 08:24:42;;;;;;;16.10;15.40;;;30.60;66.50;;;;;;4959454;28;20447;-73
2023/06/07 08:27:09;;;;;;;16.00;15.40;;;31.20;65.00;;;;;;4955376;28;20479;-74
2023/06/07 08:29:35;;;;;;;14.83;14.33;;;31.50;64.00;;;;;;4958934;28;20445;-74
2023/06/07 08:32:04;;;;;;;15.00;14.40;;;32.00;62.10;;;;;;4943293;28;20860;-74
2023/06/07 08:34:31;;;;;;;14.97;14.37;;;32.60;60.00;;;;;;4940769;29;20453;-74
2023/06/07 08:42:03;;;;;;;14.73;14.20;;;32.20;58.50;;;;;;4950545;28;20457;-74
2023/06/07 08:49:44;;;;;;;14.97;14.37;;;31.60;59.30;;;;;;5172644;23;20940;-73
2023/06/07 08:52:11;;;;;;;15.90;15.30;;;32.60;58.00;;;;;;4950665;29;20817;-73
2023/06/07 08:54:43;;;;;;;15.00;14.50;;;32.60;57.50;;;;;;4951137;29;20460;-73
2023/06/07 08:57:10;;;;;;;16.10;15.30;;;32.00;57.80;;;;;;4950899;29;20452;-73
2023/06/07 08:59:38;;;;;;;16.10;15.40;;;30.70;59.80;;;;;;4952815;28;20484;-73
2023/06/07 09:02:05;;;;;;;15.20;14.70;;;30.30;61.90;;;;;;4957417;28;20460;-73
2023/06/07 09:04:33;;;;;;;16.40;15.80;;;30.80;62.20;;;;;;4960623;28;20454;-73
2023/06/07 09:07:03;;;;;;;15.60;14.90;;;31.40;59.00;;;;;;4966346;28;20447;-71
2023/06/07 09:09:30;;;;;;;15.40;14.90;;;32.20;57.70;;;;;;4962795;28;20525;-72
2023/06/07 09:11:57;;;;;;;16.30;15.70;;;32.50;55.60;;;;;;4965615;28;20448;-71
2023/06/07 09:14:25;;;;;;;15.40;14.90;;;32.70;55.00;;;;;;4965555;28;20483;-71
2023/06/07 09:16:54;;;;;;;15.53;14.90;;;33.40;54.10;;;;;;4963641;28;21006;-71
2023/06/07 09:19:31;;;;;;;16.20;15.60;;;33.30;54.80;;;;;;4966274;28;20452;-71
2023/06/07 09:21:58;;;;;;;15.40;14.90;;;33.80;53.70;;;;;;4964824;28;20597;-71
2023/06/07 09:24:29;;;;;;;15.50;14.80;;;34.70;53.00;;;;;;4973672;28;20466;-73
2023/06/07 09:26:56;;;;;;;16.70;15.90;;;33.70;53.30;;;;;;4976421;28;20953;-71
2023/06/07 09:29:23;;;;;;;16.00;15.30;;;33.50;54.10;;;;;;4976773;28;20479;-72
2023/06/07 09:31:50;;;;;;;16.17;15.47;;;33.90;53.70;;;;;;4976834;28;20463;-72
2023/06/07 09:34:21;;;;;;;15.63;15.03;;;34.00;52.10;;;;;;4976613;28;20487;-72
2023/06/07 09:36:52;;;;;;;15.67;14.97;;;34.00;52.60;;;;;;4976411;28;20820;-72
2023/06/07 09:39:23;;;;;;;15.93;15.33;;;34.20;51.30;;;;;;4976641;28;20453;-73
2023/06/07 09:41:51;;;;;;;15.70;15.00;;;34.50;50.50;;;;;;4976895;28;20888;-72
2023/06/07 09:44:22;;;;;;;15.43;14.83;;;34.30;50.30;;;;;;4976549;28;21002;-72
2023/06/07 09:46:50;;;;;;;15.63;14.93;;;34.00;51.10;;;;;;4976575;28;20475;-73
2023/06/07 09:49:23;;;;;;;15.40;14.90;;;34.60;49.90;;;;;;4976614;28;20486;-73
2023/06/07 09:51:53;;;;;;;15.40;14.60;;;34.50;48.90;;;;;;4976828;28;20543;-73
2023/06/07 09:54:34;;;;;;;15.53;15.00;;;34.90;48.90;;;;;;4976462;28;20984;-73
2023/06/07 09:57:03;;;;;;;15.70;15.20;;;35.00;48.40;;;;;;4976357;28;20454;-72
2023/06/07 09:59:29;;;;;;;15.40;14.80;;;34.80;47.90;;;;;;4976267;28;20459;-72
2023/06/07 10:01:56;;;;;;;15.13;14.63;;;34.90;48.40;;;;;;4976144;28;20451;-73
2023/06/07 10:04:23;;;;;;;15.80;15.20;;;34.30;49.80;;;;;;4975985;28;20478;-74
2023/06/07 10:06:54;;;;;;;15.13;14.37;;;34.30;50.10;;;;;;4976269;28;20477;-72
2023/06/07 10:09:22;;;;;;;14.93;14.17;;;34.00;51.30;;;;;;4976324;28;20459;-73
2023/06/07 10:11:54;;;;;;;15.43;14.73;;;35.00;50.70;;;;;;4972773;28;20458;-73
2023/06/07 10:14:28;;;;;;;16.57;15.47;;;35.40;49.40;;;;;;4973034;28;20490;-73
2023/06/07 10:17:00;;;;;;;15.73;15.23;;;35.50;49.70;;;;;;4972939;28;20481;-73
2023/06/07 10:19:30;;;;;;;15.80;15.20;;;34.60;49.30;;;;;;4972802;28;20797;-73
2023/06/07 10:21:59;;;;;;;15.50;15.00;;;34.10;50.20;;;;;;4971251;28;20910;-73
2023/06/07 10:24:33;;;;;;;15.80;15.27;;;34.10;49.30;;;;;;4963282;28;20536;-74
2023/06/07 10:27:09;;;;;;;15.10;14.60;;;34.40;47.50;;;;;;4960516;28;20440;-73
2023/06/07 10:29:42;;;;;;;15.33;14.73;;;34.30;47.80;;;;;;4959761;28;20451;-73
2023/06/07 10:32:14;;;;;;;15.13;14.53;;;33.50;48.20;;;;;;4961764;28;20551;-73
2023/06/07 10:34:42;;;;;;;15.03;14.53;;;32.60;50.40;;;;;;4969222;28;20483;-72
2023/06/07 10:37:10;;;;;;;15.03;14.53;;;33.70;49.60;;;;;;4972824;28;20920;-72
2023/06/07 10:39:38;;;;;;;15.70;15.10;;;34.40;48.90;;;;;;4973200;28;20825;-72
2023/06/07 10:42:09;;;;;;;15.93;15.43;;;35.10;47.80;;;;;;4973025;28;20447;-72
2023/06/07 10:44:38;;;;;;;15.60;15.10;;;35.90;54.90;;;;;;4973327;28;20535;-72
2023/06/07 10:47:27;;;;;;;15.40;14.80;;;37.20;81.50;;;;;;4970330;28;20486;-72
2023/06/07 10:49:54;;;;;;;15.93;15.43;;;35.90;77.00;;;;;;4972329;28;20545;-73
2023/06/07 10:52:22;;;;;;;15.50;14.93;;;36.70;72.30;;;;;;4972790;28;20479;-72
2023/06/07 10:54:48;;;;;;;16.40;15.67;;;35.70;73.40;;;;;;4972522;28;20885;-72
2023/06/07 10:57:31;;;;;;;15.33;14.83;;;35.20;78.00;;;;;;4972235;28;20459;-72
2023/06/07 11:00:29;;;;;;;15.57;15.07;;;35.60;80.20;;;;;;4972242;28;20458;-73
2023/06/07 11:03:35;;;;;;;15.73;15.23;;;35.20;78.50;;;;;;4972394;28;20456;-72
2023/06/07 11:06:06;;;;;;;16.03;15.47;;;36.40;77.70;;;;;;4972228;28;20454;-72
2023/06/07 11:08:36;;;;;;;16.03;15.43;;;36.20;79.10;;;;;;4972288;28;20566;-73
2023/06/07 11:11:04;;;;;;;16.67;16.03;;;36.80;78.70;;;;;;4972192;28;20492;-73
2023/06/07 11:14:12;;;;;;;15.43;14.93;;;37.20;79.70;;;;;;4971961;28;20499;-72
2023/06/07 11:16:41;;;;;;;16.30;15.80;;;37.40;79.90;;;;;;4972081;28;20490;-73
2023/06/07 11:19:16;;;;;;;16.40;15.67;;;36.40;82.00;;;;;;4972279;28;20864;-73
2023/06/07 11:22:05;;;;;;;15.00;14.40;;;35.80;81.10;;;;;;4971908;28;20466;-73
2023/06/07 11:24:33;;;;;;;15.30;14.70;;;36.40;81.70;;;;;;4971498;28;20443;-73
2023/06/07 11:27:00;;;;;;;16.20;15.70;;;36.30;82.50;;;;;;4969848;28;20954;-73
2023/06/07 11:29:28;;;;;;;16.20;15.40;;;36.90;81.10;;;;;;4971587;28;20510;-73
2023/06/07 11:32:01;;;;;;;16.60;16.00;;;36.40;80.90;;;;;;4972599;28;20935;-73
2023/06/07 11:34:29;;;;;;;16.00;15.43;;;36.60;81.00;;;;;;4971418;28;20775;-72
2023/06/07 11:37:17;;;;;;;16.93;16.00;;;36.20;81.50;;;;;;4971553;28;20458;-72
2023/06/07 11:39:45;;;;;;;16.43;15.83;;;36.30;77.50;;;;;;4971678;28;20483;-73
2023/06/07 11:42:11;;;;;;;15.43;14.83;;;34.90;77.50;;;;;;4971503;28;20452;-73
2023/06/07 11:44:38;;;;;;;15.20;14.60;;;34.00;78.60;;;;;;4971599;28;20462;-72
2023/06/07 11:47:07;;;;;;;15.50;14.70;;;33.80;79.30;;;;;;4966272;28;20479;-72
2023/06/07 11:49:37;;;;;;;15.00;14.50;;;34.60;79.60;;;;;;4952553;28;20488;-73
2023/06/07 11:52:05;;;;;;;15.00;14.50;;;33.80;78.50;;;;;;4952321;29;20516;-73
2023/06/07 11:54:33;;;;;;;14.53;14.03;;;34.30;78.50;;;;;;4951901;29;20905;-72
2023/06/07 11:57:01;;;;;;;15.30;14.70;;;34.20;79.70;;;;;;4951878;29;20527;-72
2023/06/07 11:59:28;;;;;;;15.77;15.27;;;33.70;82.10;;;;;;4951845;29;20449;-72
2023/06/07 12:01:55;;;;;;;15.90;14.90;;;34.10;83.70;;;;;;4951897;29;20456;-72
2023/06/07 12:04:24;;;;;;;15.63;14.83;;;33.70;84.20;;;;;;4951997;29;20544;-73
2023/06/07 12:06:51;;;;;;;15.10;14.50;;;32.60;86.80;;;;;;4951982;29;20464;-72
2023/06/07 12:09:22;;;;;;;15.27;14.73;;;32.20;86.90;;;;;;4951842;29;20503;-72
2023/06/07 12:11:49;;;;;;;14.20;13.70;;;30.80;88.50;;;;;;4951914;29;20459;-72
2023/06/07 12:14:34;;;;;;;14.80;14.10;;;30.00;90.10;;;;;;4951558;29;20500;-72
2023/06/07 12:17:02;;;;;;;14.07;13.67;;;30.10;90.60;;;;;;4951624;28;20460;-72
2023/06/07 12:19:30;;;;;;;14.77;14.17;;;30.40;90.80;;;;;;4951662;28;21113;-72
2023/06/07 12:22:05;;;;;;;14.33;13.80;;;30.80;90.40;;;;;;4951539;29;20883;-72
2023/06/07 12:24:36;;;;;;;14.97;14.37;;;30.60;90.70;;;;;;4951484;29;20448;-72
2023/06/07 12:27:05;;;;;;;14.63;14.13;;;30.50;91.30;;;;;;4951630;29;20843;-71
2023/06/07 12:29:32;;;;;;;15.30;14.70;;;31.60;91.00;;;;;;4951339;29;20878;-71
2023/06/07 12:32:01;;;;;;;14.30;13.80;;;32.20;85.20;;;;;;4951380;29;20570;-72
2023/06/07 12:34:31;;;;;;;14.93;14.33;;;32.20;85.10;;;;;;4950474;28;20520;-72
2023/06/07 12:36:58;;;;;;;15.10;14.37;;;32.00;85.20;;;;;;4951054;29;21180;-72
2023/06/07 12:39:29;;;;;;;15.07;14.57;;;32.10;86.50;;;;;;4951200;29;20457;-73
2023/06/07 12:41:56;;;;;;;15.03;14.43;;;32.50;85.80;;;;;;4949799;28;20464;-72
2023/06/07 12:44:24;;;;;;;14.63;13.93;;;33.20;85.30;;;;;;4951143;29;20967;-72
2023/06/07 12:46:51;;;;;;;14.77;14.20;;;33.30;83.70;;;;;;4951292;28;20473;-72